sensor_id;sensor_type;location;lat;lon;timestamp;temperature;humidity
48744;DHT22;34538;48.836;9.174;2022-07-17T00:02:23;15.60;97.70
48744;DHT22;34538;48.836;9.174;2022-07-17T00:04:48;15.70;98.00
48744;DHT22;34538;48.836;9.174;2022-07-17T00:07:14;15.60;98.00
48744;DHT22;34538;48.836;9.174;2022-07-17T00:09:40;15.60;98.20
48744;DHT22;34538;48.836;9.174;2022-07-17T00:12:06;15.60;98.20
48744;DHT22;34538;48.836;9.174;2022-07-17T00:14:32;15.50;98.50
48744;DHT22;34538;48.836;9.174;2022-07-17T00:16:58;15.50;98.60
48744;DHT22;34538;48.836;9.174;2022-07-17T00:19:24;15.50;98.90
48744;DHT22;34538;48.836;9.174;2022-07-17T00:21:50;15.40;99.10
48744;DHT22;34538;48.836;9.174;2022-07-17T00:24:16;15.40;99.20
48744;DHT22;34538;48.836;9.174;2022-07-17T00:26:48;15.40;99.20
48744;DHT22;34538;48.836;9.174;2022-07-17T00:29:14;15.40;99.70
48744;DHT22;34538;48.836;9.174;2022-07-17T00:31:39;15.30;99.80
48744;DHT22;34538;48.836;9.174;2022-07-17T00:34:05;15.30;99.90
48744;DHT22;34538;48.836;9.174;2022-07-17T00:36:31;15.30;99.80
48744;DHT22;34538;48.836;9.174;2022-07-17T00:38:57;15.20;99.90
48744;DHT22;34538;48.836;9.174;2022-07-17T00:41:22;15.20;99.90
48744;DHT22;34538;48.836;9.174;2022-07-17T00:43:48;15.20;99.90
48744;DHT22;34538;48.836;9.174;2022-07-17T00:46:14;15.10;99.90
48744;DHT22;34538;48.836;9.174;2022-07-17T00:48:39;15.20;99.90
48744;DHT22;34538;48.836;9.174;2022-07-17T00:51:05;15.10;99.90
48744;DHT22;34538;48.836;9.174;2022-07-17T00:53:33;15.10;99.90
48744;DHT22;34538;48.836;9.174;2022-07-17T00:56:05;15.10;99.90
48744;DHT22;34538;48.836;9.174;2022-07-17T00:58:34;15.00;99.90
48744;DHT22;34538;48.836;9.174;2022-07-17T01:01:03;15.00;99.90
48744;DHT22;34538;48.836;9.174;2022-07-17T01:03:32;15.00;99.90
48744;DHT22;34538;48.836;9.174;2022-07-17T01:05:58;14.90;99.90
48744;DHT22;34538;48.836;9.174;2022-07-17T01:08:24;14.90;99.90
48744;DHT22;34538;48.836;9.174;2022-07-17T01:10:49;14.90;99.90
48744;DHT22;34538;48.836;9.174;2022-07-17T01:13:16;14.80;99.90
48744;DHT22;34538;48.836;9.174;2022-07-17T01:15:42;14.80;99.90
48744;DHT22;34538;48.836;9.174;2022-07-17T01:18:09;14.80;99.90
48744;DHT22;34538;48.836;9.174;2022-07-17T01:20:38;14.70;99.90
48744;DHT22;34538;48.836;9.174;2022-07-17T01:23:04;14.70;99.90
48744;DHT22;34538;48.836;9.174;2022-07-17T01:25:30;14.60;99.90
48744;DHT22;34538;48.836;9.174;2022-07-17T01:27:56;14.60;99.90
48744;DHT22;34538;48.836;9.174;2022-07-17T01:30:22;14.60;99.90
48744;DHT22;34538;48.836;9.174;2022-07-17T01:32:48;14.50;99.90
48744;DHT22;34538;48.836;9.174;2022-07-17T01:35:14;14.50;99.90
48744;DHT22;34538;48.836;9.174;2022-07-17T01:37:42;14.50;99.90
48744;DHT22;34538;48.836;9.174;2022-07-17T01:40:09;14.50;99.90
48744;DHT22;34538;48.836;9.174;2022-07-17T01:42:38;14.40;99.90
48744;DHT22;34538;48.836;9.174;2022-07-17T01:45:05;14.40;99.90
48744;DHT22;34538;48.836;9.174;2022-07-17T01:47:31;14.30;99.90
48744;DHT22;34538;48.836;9.174;2022-07-17T01:49:57;14.30;99.90
48744;DHT22;34538;48.836;9.174;2022-07-17T01:52:24;14.30;99.90
48744;DHT22;34538;48.836;9.174;2022-07-17T01:54:51;14.20;99.90
48744;DHT22;34538;48.836;9.174;2022-07-17T01:57:17;14.20;99.90
48744;DHT22;34538;48.836;9.174;2022-07-17T01:59:43;14.10;99.90
48744;DHT22;34538;48.836;9.174;2022-07-17T02:02:10;14.10;99.90
48744;DHT22;34538;48.836;9.174;2022-07-17T02:04:38;14.10;99.90
48744;DHT22;34538;48.836;9.174;2022-07-17T02:07:04;14.00;99.90
48744;DHT22;34538;48.836;9.174;2022-07-17T02:09:30;14.00;99.90
48744;DHT22;34538;48.836;9.174;2022-07-17T02:11:56;14.00;99.90
48744;DHT22;34538;48.836;9.174;2022-07-17T02:14:23;14.00;99.90
48744;DHT22;34538;48.836;9.174;2022-07-17T02:16:49;13.90;99.90
48744;DHT22;34538;48.836;9.174;2022-07-17T02:19:15;13.90;99.90
48744;DHT22;34538;48.836;9.174;2022-07-17T02:21:40;13.90;99.90
48744;DHT22;34538;48.836;9.174;2022-07-17T02:24:06;13.80;99.90
48744;DHT22;34538;48.836;9.174;2022-07-17T02:26:32;13.80;99.90
48744;DHT22;34538;48.836;9.174;2022-07-17T02:28:58;13.80;99.90
48744;DHT22;34538;48.836;9.174;2022-07-17T02:31:23;13.70;99.90
48744;DHT22;34538;48.836;9.174;2022-07-17T02:33:49;13.70;99.90
48744;DHT22;34538;48.836;9.174;2022-07-17T02:36:15;13.70;99.90
48744;DHT22;34538;48.836;9.174;2022-07-17T02:38:40;13.70;99.90
48744;DHT22;34538;48.836;9.174;2022-07-17T02:41:06;13.70;99.90
48744;DHT22;34538;48.836;9.174;2022-07-17T02:43:32;13.60;99.90
48744;DHT22;34538;48.836;9.174;2022-07-17T02:45:57;13.60;99.90
48744;DHT22;34538;48.836;9.174;2022-07-17T02:48:23;13.60;99.90
48744;DHT22;34538;48.836;9.174;2022-07-17T02:50:49;13.60;99.90
48744;DHT22;34538;48.836;9.174;2022-07-17T02:53:14;13.50;99.90
48744;DHT22;34538;48.836;9.174;2022-07-17T02:55:40;13.40;99.90
48744;DHT22;34538;48.836;9.174;2022-07-17T02:58:05;13.40;99.90
48744;DHT22;34538;48.836;9.174;2022-07-17T03:00:31;13.40;99.90
48744;DHT22;34538;48.836;9.174;2022-07-17T03:02:57;13.40;99.90
48744;DHT22;34538;48.836;9.174;2022-07-17T03:05:22;13.30;99.90
48744;DHT22;34538;48.836;9.174;2022-07-17T03:07:48;13.30;99.90
48744;DHT22;34538;48.836;9.174;2022-07-17T03:10:14;13.30;99.90
48744;DHT22;34538;48.836;9.174;2022-07-17T03:12:41;13.20;99.90
48744;DHT22;34538;48.836;9.174;2022-07-17T03:15:07;13.20;99.90
48744;DHT22;34538;48.836;9.174;2022-07-17T03:17:33;13.10;99.90
48744;DHT22;34538;48.836;9.174;2022-07-17T03:19:59;13.10;99.90
48744;DHT22;34538;48.836;9.174;2022-07-17T03:22:25;13.10;99.90
48744;DHT22;34538;48.836;9.174;2022-07-17T03:24:51;13.00;99.90
48744;DHT22;34538;48.836;9.174;2022-07-17T03:27:16;13.00;99.90
48744;DHT22;34538;48.836;9.174;2022-07-17T03:29:43;12.90;99.90
48744;DHT22;34538;48.836;9.174;2022-07-17T03:32:08;13.00;99.90
48744;DHT22;34538;48.836;9.174;2022-07-17T03:34:34;12.90;99.90
48744;DHT22;34538;48.836;9.174;2022-07-17T03:37:00;12.90;99.90
48744;DHT22;34538;48.836;9.174;2022-07-17T03:39:25;12.90;99.90
48744;DHT22;34538;48.836;9.174;2022-07-17T03:41:51;12.90;99.90
48744;DHT22;34538;48.836;9.174;2022-07-17T03:44:17;12.90;99.90
48744;DHT22;34538;48.836;9.174;2022-07-17T03:46:43;12.80;99.90
48744;DHT22;34538;48.836;9.174;2022-07-17T03:49:09;12.80;99.90
48744;DHT22;34538;48.836;9.174;2022-07-17T03:51:36;12.80;99.90
48744;DHT22;34538;48.836;9.174;2022-07-17T03:54:01;12.80;99.90
48744;DHT22;34538;48.836;9.174;2022-07-17T03:56:27;12.80;99.90
48744;DHT22;34538;48.836;9.174;2022-07-17T03:58:52;12.80;99.90
48744;DHT22;34538;48.836;9.174;2022-07-17T04:01:18;12.80;99.90
48744;DHT22;34538;48.836;9.174;2022-07-17T04:03:44;12.80;99.90
48744;DHT22;34538;48.836;9.174;2022-07-17T04:06:09;12.80;99.90
48744;DHT22;34538;48.836;9.174;2022-07-17T04:08:35;12.80;99.90
48744;DHT22;34538;48.836;9.174;2022-07-17T04:11:01;12.80;99.90
48744;DHT22;34538;48.836;9.174;2022-07-17T04:13:26;12.90;99.90
48744;DHT22;34538;48.836;9.174;2022-07-17T04:15:52;12.90;99.90
48744;DHT22;34538;48.836;9.174;2022-07-17T04:18:19;12.90;99.90
48744;DHT22;34538;48.836;9.174;2022-07-17T04:20:46;12.80;99.90
48744;DHT22;34538;48.836;9.174;2022-07-17T04:23:12;12.80;99.90
48744;DHT22;34538;48.836;9.174;2022-07-17T04:25:39;12.90;99.90
48744;DHT22;34538;48.836;9.174;2022-07-17T04:28:05;12.90;99.90
48744;DHT22;34538;48.836;9.174;2022-07-17T04:30:30;12.90;99.90
48744;DHT22;34538;48.836;9.174;2022-07-17T04:32:57;12.90;99.90
48744;DHT22;34538;48.836;9.174;2022-07-17T04:35:22;13.00;99.90
48744;DHT22;34538;48.836;9.174;2022-07-17T04:37:48;13.10;99.90
48744;DHT22;34538;48.836;9.174;2022-07-17T04:40:13;13.10;99.90
48744;DHT22;34538;48.836;9.174;2022-07-17T04:42:39;13.20;99.90
48744;DHT22;34538;48.836;9.174;2022-07-17T04:45:06;13.20;99.90
48744;DHT22;34538;48.836;9.174;2022-07-17T04:47:31;13.30;99.90
48744;DHT22;34538;48.836;9.174;2022-07-17T04:49:58;13.40;99.90
48744;DHT22;34538;48.836;9.174;2022-07-17T04:52:24;13.40;99.90
48744;DHT22;34538;48.836;9.174;2022-07-17T04:54:49;13.50;99.90
48744;DHT22;34538;48.836;9.174;2022-07-17T04:57:15;13.60;99.90
48744;DHT22;34538;48.836;9.174;2022-07-17T04:59:41;13.70;99.90
48744;DHT22;34538;48.836;9.174;2022-07-17T05:02:06;13.90;99.90
48744;DHT22;34538;48.836;9.174;2022-07-17T05:04:32;14.00;99.90
48744;DHT22;34538;48.836;9.174;2022-07-17T05:06:58;14.20;99.90
48744;DHT22;34538;48.836;9.174;2022-07-17T05:09:24;14.50;99.90
48744;DHT22;34538;48.836;9.174;2022-07-17T05:11:50;14.80;99.90
48744;DHT22;34538;48.836;9.174;2022-07-17T05:14:15;15.30;99.90
48744;DHT22;34538;48.836;9.174;2022-07-17T05:16:41;15.60;99.90
48744;DHT22;34538;48.836;9.174;2022-07-17T05:19:06;16.00;99.90
48744;DHT22;34538;48.836;9.174;2022-07-17T05:21:32;16.40;99.90
48744;DHT22;34538;48.836;9.174;2022-07-17T05:23:58;16.80;99.90
48744;DHT22;34538;48.836;9.174;2022-07-17T05:26:24;17.20;99.90
48744;DHT22;34538;48.836;9.174;2022-07-17T05:28:50;17.60;99.90
48744;DHT22;34538;48.836;9.174;2022-07-17T05:31:15;18.00;99.90
48744;DHT22;34538;48.836;9.174;2022-07-17T05:33:41;18.40;99.90
48744;DHT22;34538;48.836;9.174;2022-07-17T05:36:07;18.70;98.90
48744;DHT22;34538;48.836;9.174;2022-07-17T05:38:32;19.00;98.20
48744;DHT22;34538;48.836;9.174;2022-07-17T05:40:59;19.30;96.90
48744;DHT22;34538;48.836;9.174;2022-07-17T05:43:24;19.40;96.10
48744;DHT22;34538;48.836;9.174;2022-07-17T05:46:01;19.70;95.70
48744;DHT22;34538;48.836;9.174;2022-07-17T05:48:29;20.00;95.50
48744;DHT22;34538;48.836;9.174;2022-07-17T05:50:55;20.20;94.60
48744;DHT22;34538;48.836;9.174;2022-07-17T05:53:20;20.40;94.40
48744;DHT22;34538;48.836;9.174;2022-07-17T05:55:46;20.40;93.40
48744;DHT22;34538;48.836;9.174;2022-07-17T05:58:12;20.50;93.30
48744;DHT22;34538;48.836;9.174;2022-07-17T06:00:37;20.50;93.00
48744;DHT22;34538;48.836;9.174;2022-07-17T06:03:03;20.60;92.70
48744;DHT22;34538;48.836;9.174;2022-07-17T06:05:29;20.70;92.70
48744;DHT22;34538;48.836;9.174;2022-07-17T06:07:56;20.80;91.80
48744;DHT22;34538;48.836;9.174;2022-07-17T06:10:22;20.80;91.50
48744;DHT22;34538;48.836;9.174;2022-07-17T06:12:48;20.80;92.50
48744;DHT22;34538;48.836;9.174;2022-07-17T06:15:15;20.80;92.20
48744;DHT22;34538;48.836;9.174;2022-07-17T06:17:41;20.60;92.00
48744;DHT22;34538;48.836;9.174;2022-07-17T06:20:07;20.50;91.80
48744;DHT22;34538;48.836;9.174;2022-07-17T06:22:33;20.40;92.10
48744;DHT22;34538;48.836;9.174;2022-07-17T06:24:59;20.30;91.50
48744;DHT22;34538;48.836;9.174;2022-07-17T06:27:24;20.30;91.50
48744;DHT22;34538;48.836;9.174;2022-07-17T06:29:50;20.30;91.30
48744;DHT22;34538;48.836;9.174;2022-07-17T06:32:16;20.30;91.00
48744;DHT22;34538;48.836;9.174;2022-07-17T06:34:42;20.30;91.50
48744;DHT22;34538;48.836;9.174;2022-07-17T06:37:08;20.20;91.30
48744;DHT22;34538;48.836;9.174;2022-07-17T06:39:33;20.10;91.60
48744;DHT22;34538;48.836;9.174;2022-07-17T06:41:59;20.00;91.20
48744;DHT22;34538;48.836;9.174;2022-07-17T06:44:25;20.00;91.10
48744;DHT22;34538;48.836;9.174;2022-07-17T06:46:51;20.20;91.20
48744;DHT22;34538;48.836;9.174;2022-07-17T06:49:16;20.30;90.90
48744;DHT22;34538;48.836;9.174;2022-07-17T06:51:42;20.40;91.30
48744;DHT22;34538;48.836;9.174;2022-07-17T06:54:14;20.40;91.70
48744;DHT22;34538;48.836;9.174;2022-07-17T06:56:40;20.50;91.70
48744;DHT22;34538;48.836;9.174;2022-07-17T06:59:05;20.40;91.30
48744;DHT22;34538;48.836;9.174;2022-07-17T07:01:35;20.50;90.40
48744;DHT22;34538;48.836;9.174;2022-07-17T07:04:02;20.40;90.90
48744;DHT22;34538;48.836;9.174;2022-07-17T07:06:28;20.40;90.40
48744;DHT22;34538;48.836;9.174;2022-07-17T07:08:53;20.30;90.60
48744;DHT22;34538;48.836;9.174;2022-07-17T07:11:19;20.30;90.70
48744;DHT22;34538;48.836;9.174;2022-07-17T07:13:44;20.40;90.70
48744;DHT22;34538;48.836;9.174;2022-07-17T07:16:10;20.40;90.30
48744;DHT22;34538;48.836;9.174;2022-07-17T07:18:36;20.40;90.20
48744;DHT22;34538;48.836;9.174;2022-07-17T07:21:02;20.50;89.40
48744;DHT22;34538;48.836;9.174;2022-07-17T07:23:28;20.60;89.20
48744;DHT22;34538;48.836;9.174;2022-07-17T07:25:54;20.60;88.30
48744;DHT22;34538;48.836;9.174;2022-07-17T07:28:19;20.60;90.10
48744;DHT22;34538;48.836;9.174;2022-07-17T07:30:45;20.70;86.90
48744;DHT22;34538;48.836;9.174;2022-07-17T07:33:11;20.70;86.00
48744;DHT22;34538;48.836;9.174;2022-07-17T07:35:36;20.70;87.80
48744;DHT22;34538;48.836;9.174;2022-07-17T07:38:03;20.70;87.10
48744;DHT22;34538;48.836;9.174;2022-07-17T07:40:29;20.70;87.20
48744;DHT22;34538;48.836;9.174;2022-07-17T07:42:54;20.70;88.90
48744;DHT22;34538;48.836;9.174;2022-07-17T07:45:20;20.80;88.20
48744;DHT22;34538;48.836;9.174;2022-07-17T07:47:47;20.90;86.00
48744;DHT22;34538;48.836;9.174;2022-07-17T07:50:14;21.00;86.90
48744;DHT22;34538;48.836;9.174;2022-07-17T07:52:40;21.00;87.40
48744;DHT22;34538;48.836;9.174;2022-07-17T07:55:06;21.20;87.00
48744;DHT22;34538;48.836;9.174;2022-07-17T07:57:33;21.30;84.50
48744;DHT22;34538;48.836;9.174;2022-07-17T07:59:59;21.40;86.10
48744;DHT22;34538;48.836;9.174;2022-07-17T08:02:25;21.40;85.10
48744;DHT22;34538;48.836;9.174;2022-07-17T08:04:51;21.40;84.80
48744;DHT22;34538;48.836;9.174;2022-07-17T08:07:17;21.40;85.00
48744;DHT22;34538;48.836;9.174;2022-07-17T08:09:43;21.40;85.00
48744;DHT22;34538;48.836;9.174;2022-07-17T08:12:08;21.50;84.80
48744;DHT22;34538;48.836;9.174;2022-07-17T08:14:34;21.50;85.10
48744;DHT22;34538;48.836;9.174;2022-07-17T08:17:00;21.60;83.60
48744;DHT22;34538;48.836;9.174;2022-07-17T08:19:25;21.70;83.50
48744;DHT22;34538;48.836;9.174;2022-07-17T08:21:51;21.70;82.60
48744;DHT22;34538;48.836;9.174;2022-07-17T08:24:16;21.70;81.80
48744;DHT22;34538;48.836;9.174;2022-07-17T08:26:43;21.80;83.70
48744;DHT22;34538;48.836;9.174;2022-07-17T08:29:09;21.90;82.50
48744;DHT22;34538;48.836;9.174;2022-07-17T08:31:34;22.00;82.70
48744;DHT22;34538;48.836;9.174;2022-07-17T08:34:00;22.00;83.40
48744;DHT22;34538;48.836;9.174;2022-07-17T08:36:26;22.20;83.40
48744;DHT22;34538;48.836;9.174;2022-07-17T08:38:52;22.30;83.00
48744;DHT22;34538;48.836;9.174;2022-07-17T08:41:18;22.40;83.10
48744;DHT22;34538;48.836;9.174;2022-07-17T08:43:48;22.50;83.10
48744;DHT22;34538;48.836;9.174;2022-07-17T08:46:16;22.50;82.40
48744;DHT22;34538;48.836;9.174;2022-07-17T08:48:45;22.50;83.10
48744;DHT22;34538;48.836;9.174;2022-07-17T08:51:12;22.70;83.50
48744;DHT22;34538;48.836;9.174;2022-07-17T08:53:41;22.80;82.10
48744;DHT22;34538;48.836;9.174;2022-07-17T08:56:07;22.90;81.60
48744;DHT22;34538;48.836;9.174;2022-07-17T08:58:33;23.00;81.60
48744;DHT22;34538;48.836;9.174;2022-07-17T09:00:59;23.00;81.20
48744;DHT22;34538;48.836;9.174;2022-07-17T09:03:25;23.00;80.60
48744;DHT22;34538;48.836;9.174;2022-07-17T09:05:51;23.10;80.30
48744;DHT22;34538;48.836;9.174;2022-07-17T09:08:22;23.20;82.30
48744;DHT22;34538;48.836;9.174;2022-07-17T09:10:48;23.20;80.20
48744;DHT22;34538;48.836;9.174;2022-07-17T09:15:46;23.40;77.80
48744;DHT22;34538;48.836;9.174;2022-07-17T09:18:12;23.40;78.70
48744;DHT22;34538;48.836;9.174;2022-07-17T09:20:49;23.50;79.60
48744;DHT22;34538;48.836;9.174;2022-07-17T09:23:17;23.60;79.20
48744;DHT22;34538;48.836;9.174;2022-07-17T09:25:45;23.70;78.00
48744;DHT22;34538;48.836;9.174;2022-07-17T09:28:13;23.80;76.40
48744;DHT22;34538;48.836;9.174;2022-07-17T09:30:46;23.80;75.30
48744;DHT22;34538;48.836;9.174;2022-07-17T09:33:18;23.80;75.90
48744;DHT22;34538;48.836;9.174;2022-07-17T09:38:43;23.90;74.50
48744;DHT22;34538;48.836;9.174;2022-07-17T09:41:16;23.90;74.40
48744;DHT22;34538;48.836;9.174;2022-07-17T09:43:43;24.00;74.80
48744;DHT22;34538;48.836;9.174;2022-07-17T09:46:13;24.00;75.10
48744;DHT22;34538;48.836;9.174;2022-07-17T09:48:42;24.20;75.10
48744;DHT22;34538;48.836;9.174;2022-07-17T09:51:09;24.30;75.20
48744;DHT22;34538;48.836;9.174;2022-07-17T09:53:37;24.40;74.60
48744;DHT22;34538;48.836;9.174;2022-07-17T09:56:03;24.50;71.10
48744;DHT22;34538;48.836;9.174;2022-07-17T09:58:32;24.60;71.40
48744;DHT22;34538;48.836;9.174;2022-07-17T10:01:01;24.70;70.30
48744;DHT22;34538;48.836;9.174;2022-07-17T10:03:26;24.70;70.80
48744;DHT22;34538;48.836;9.174;2022-07-17T10:05:52;24.70;71.10
48744;DHT22;34538;48.836;9.174;2022-07-17T10:08:19;24.80;69.60
48744;DHT22;34538;48.836;9.174;2022-07-17T10:10:45;24.80;66.70
48744;DHT22;34538;48.836;9.174;2022-07-17T10:13:11;24.80;67.00
48744;DHT22;34538;48.836;9.174;2022-07-17T10:15:41;24.80;65.90
48744;DHT22;34538;48.836;9.174;2022-07-17T10:18:08;24.90;67.00
48744;DHT22;34538;48.836;9.174;2022-07-17T10:20:33;24.90;66.50
48744;DHT22;34538;48.836;9.174;2022-07-17T10:22:59;24.90;67.50
48744;DHT22;34538;48.836;9.174;2022-07-17T10:25:25;25.10;68.10
48744;DHT22;34538;48.836;9.174;2022-07-17T10:27:52;25.10;68.10
48744;DHT22;34538;48.836;9.174;2022-07-17T10:30:23;25.20;67.80
48744;DHT22;34538;48.836;9.174;2022-07-17T10:32:59;25.30;66.10
48744;DHT22;34538;48.836;9.174;2022-07-17T10:35:27;25.30;65.60
48744;DHT22;34538;48.836;9.174;2022-07-17T10:37:57;25.40;65.90
48744;DHT22;34538;48.836;9.174;2022-07-17T10:40:27;25.40;64.20
48744;DHT22;34538;48.836;9.174;2022-07-17T10:42:59;25.50;64.40
48744;DHT22;34538;48.836;9.174;2022-07-17T10:48:07;25.60;62.70
48744;DHT22;34538;48.836;9.174;2022-07-17T10:50:54;25.70;62.70
48744;DHT22;34538;48.836;9.174;2022-07-17T10:53:23;25.70;61.20
48744;DHT22;34538;48.836;9.174;2022-07-17T10:55:52;25.80;62.90
48744;DHT22;34538;48.836;9.174;2022-07-17T10:58:28;25.80;61.40
48744;DHT22;34538;48.836;9.174;2022-07-17T11:01:06;25.80;63.40
48744;DHT22;34538;48.836;9.174;2022-07-17T11:03:48;25.80;63.80
48744;DHT22;34538;48.836;9.174;2022-07-17T11:08:54;25.90;63.00
48744;DHT22;34538;48.836;9.174;2022-07-17T11:11:33;26.00;62.90
48744;DHT22;34538;48.836;9.174;2022-07-17T11:14:17;25.90;63.30
48744;DHT22;34538;48.836;9.174;2022-07-17T11:16:48;26.00;62.60
48744;DHT22;34538;48.836;9.174;2022-07-17T11:19:29;26.00;61.40
48744;DHT22;34538;48.836;9.174;2022-07-17T11:21:57;26.00;61.30
48744;DHT22;34538;48.836;9.174;2022-07-17T11:24:23;26.10;61.50
48744;DHT22;34538;48.836;9.174;2022-07-17T11:26:51;26.10;59.50
48744;DHT22;34538;48.836;9.174;2022-07-17T11:29:18;26.10;60.70
48744;DHT22;34538;48.836;9.174;2022-07-17T11:31:44;26.20;62.40
48744;DHT22;34538;48.836;9.174;2022-07-17T11:34:11;26.30;62.20
48744;DHT22;34538;48.836;9.174;2022-07-17T11:36:37;26.50;63.10
48744;DHT22;34538;48.836;9.174;2022-07-17T11:39:06;26.60;61.80
48744;DHT22;34538;48.836;9.174;2022-07-17T11:41:37;26.70;61.30
48744;DHT22;34538;48.836;9.174;2022-07-17T11:44:05;26.70;60.30
48744;DHT22;34538;48.836;9.174;2022-07-17T11:46:31;26.70;59.00
48744;DHT22;34538;48.836;9.174;2022-07-17T11:48:59;26.70;60.60
48744;DHT22;34538;48.836;9.174;2022-07-17T11:51:41;26.70;60.50
48744;DHT22;34538;48.836;9.174;2022-07-17T11:54:12;26.60;59.30
48744;DHT22;34538;48.836;9.174;2022-07-17T11:56:38;26.60;59.00
48744;DHT22;34538;48.836;9.174;2022-07-17T11:59:05;26.60;58.70
48744;DHT22;34538;48.836;9.174;2022-07-17T12:01:43;26.70;60.40
48744;DHT22;34538;48.836;9.174;2022-07-17T12:04:13;26.80;61.30
48744;DHT22;34538;48.836;9.174;2022-07-17T12:06:40;26.80;60.10
48744;DHT22;34538;48.836;9.174;2022-07-17T12:09:06;26.80;59.30
48744;DHT22;34538;48.836;9.174;2022-07-17T12:11:32;26.90;57.60
48744;DHT22;34538;48.836;9.174;2022-07-17T12:14:05;26.80;57.00
48744;DHT22;34538;48.836;9.174;2022-07-17T12:16:36;26.90;59.40
48744;DHT22;34538;48.836;9.174;2022-07-17T12:19:10;27.00;59.60
48744;DHT22;34538;48.836;9.174;2022-07-17T12:21:48;27.20;58.10
48744;DHT22;34538;48.836;9.174;2022-07-17T12:24:19;27.40;56.10
48744;DHT22;34538;48.836;9.174;2022-07-17T12:26:45;27.50;56.70
48744;DHT22;34538;48.836;9.174;2022-07-17T12:29:11;27.60;56.80
48744;DHT22;34538;48.836;9.174;2022-07-17T12:31:36;27.80;56.50
48744;DHT22;34538;48.836;9.174;2022-07-17T12:34:02;27.90;55.20
48744;DHT22;34538;48.836;9.174;2022-07-17T12:36:28;27.90;55.50
48744;DHT22;34538;48.836;9.174;2022-07-17T12:38:53;27.90;56.10
48744;DHT22;34538;48.836;9.174;2022-07-17T12:41:19;28.00;56.10
48744;DHT22;34538;48.836;9.174;2022-07-17T12:43:45;28.00;54.00
48744;DHT22;34538;48.836;9.174;2022-07-17T12:46:11;28.00;53.40
48744;DHT22;34538;48.836;9.174;2022-07-17T12:48:37;28.00;55.30
48744;DHT22;34538;48.836;9.174;2022-07-17T12:51:06;28.10;56.90
48744;DHT22;34538;48.836;9.174;2022-07-17T12:53:32;28.10;57.40
48744;DHT22;34538;48.836;9.174;2022-07-17T12:55:58;28.10;58.80
48744;DHT22;34538;48.836;9.174;2022-07-17T12:58:24;28.10;58.40
48744;DHT22;34538;48.836;9.174;2022-07-17T13:00:49;28.10;58.50
48744;DHT22;34538;48.836;9.174;2022-07-17T13:03:15;28.20;57.90
48744;DHT22;34538;48.836;9.174;2022-07-17T13:05:41;28.20;58.60
48744;DHT22;34538;48.836;9.174;2022-07-17T13:08:06;28.20;57.50
48744;DHT22;34538;48.836;9.174;2022-07-17T13:10:34;28.10;57.50
48744;DHT22;34538;48.836;9.174;2022-07-17T13:13:00;28.10;57.40
48744;DHT22;34538;48.836;9.174;2022-07-17T13:15:25;28.10;56.90
48744;DHT22;34538;48.836;9.174;2022-07-17T13:17:51;28.10;57.20
48744;DHT22;34538;48.836;9.174;2022-07-17T13:20:16;28.20;59.20
48744;DHT22;34538;48.836;9.174;2022-07-17T13:22:42;28.20;56.60
48744;DHT22;34538;48.836;9.174;2022-07-17T13:25:08;28.20;58.70
48744;DHT22;34538;48.836;9.174;2022-07-17T13:27:34;28.20;56.90
48744;DHT22;34538;48.836;9.174;2022-07-17T13:29:59;28.20;56.90
48744;DHT22;34538;48.836;9.174;2022-07-17T13:32:25;28.20;56.40
48744;DHT22;34538;48.836;9.174;2022-07-17T13:34:51;28.10;57.60
48744;DHT22;34538;48.836;9.174;2022-07-17T13:37:16;28.20;55.90
48744;DHT22;34538;48.836;9.174;2022-07-17T13:39:42;28.20;55.20
48744;DHT22;34538;48.836;9.174;2022-07-17T13:42:07;28.10;57.00
48744;DHT22;34538;48.836;9.174;2022-07-17T13:44:33;28.20;55.40
48744;DHT22;34538;48.836;9.174;2022-07-17T13:46:59;28.30;54.70
48744;DHT22;34538;48.836;9.174;2022-07-17T13:49:25;28.30;54.40
48744;DHT22;34538;48.836;9.174;2022-07-17T13:51:51;28.30;53.00
48744;DHT22;34538;48.836;9.174;2022-07-17T13:54:17;28.30;54.10
48744;DHT22;34538;48.836;9.174;2022-07-17T13:56:43;28.30;53.40
48744;DHT22;34538;48.836;9.174;2022-07-17T13:59:08;28.40;54.70
48744;DHT22;34538;48.836;9.174;2022-07-17T14:01:34;28.40;53.90
48744;DHT22;34538;48.836;9.174;2022-07-17T14:04:03;28.50;54.10
48744;DHT22;34538;48.836;9.174;2022-07-17T14:06:29;28.40;53.90
48744;DHT22;34538;48.836;9.174;2022-07-17T14:08:54;28.50;54.30
48744;DHT22;34538;48.836;9.174;2022-07-17T14:11:20;28.50;53.00
48744;DHT22;34538;48.836;9.174;2022-07-17T14:13:46;28.50;53.30
48744;DHT22;34538;48.836;9.174;2022-07-17T14:16:12;28.40;52.60
48744;DHT22;34538;48.836;9.174;2022-07-17T14:18:37;28.50;52.70
48744;DHT22;34538;48.836;9.174;2022-07-17T14:21:24;28.50;52.10
48744;DHT22;34538;48.836;9.174;2022-07-17T14:23:50;28.50;52.90
48744;DHT22;34538;48.836;9.174;2022-07-17T14:26:15;28.50;53.50
48744;DHT22;34538;48.836;9.174;2022-07-17T14:28:41;28.50;53.10
48744;DHT22;34538;48.836;9.174;2022-07-17T14:31:06;28.60;54.10
48744;DHT22;34538;48.836;9.174;2022-07-17T14:33:32;28.60;52.80
48744;DHT22;34538;48.836;9.174;2022-07-17T14:35:58;28.60;53.20
48744;DHT22;34538;48.836;9.174;2022-07-17T14:38:23;28.50;52.80
48744;DHT22;34538;48.836;9.174;2022-07-17T14:40:49;28.50;54.10
48744;DHT22;34538;48.836;9.174;2022-07-17T14:43:14;28.50;53.80
48744;DHT22;34538;48.836;9.174;2022-07-17T14:45:40;28.50;54.40
48744;DHT22;34538;48.836;9.174;2022-07-17T14:48:06;28.50;55.40
48744;DHT22;34538;48.836;9.174;2022-07-17T14:50:31;28.50;55.50
48744;DHT22;34538;48.836;9.174;2022-07-17T14:52:57;28.60;56.70
48744;DHT22;34538;48.836;9.174;2022-07-17T14:55:23;28.70;55.90
48744;DHT22;34538;48.836;9.174;2022-07-17T14:57:48;28.80;54.90
48744;DHT22;34538;48.836;9.174;2022-07-17T15:00:14;28.70;54.50
48744;DHT22;34538;48.836;9.174;2022-07-17T15:02:40;28.80;54.70
48744;DHT22;34538;48.836;9.174;2022-07-17T15:05:07;28.70;54.10
48744;DHT22;34538;48.836;9.174;2022-07-17T15:07:33;28.70;53.50
48744;DHT22;34538;48.836;9.174;2022-07-17T15:09:59;28.70;54.20
48744;DHT22;34538;48.836;9.174;2022-07-17T15:12:24;28.70;53.50
48744;DHT22;34538;48.836;9.174;2022-07-17T15:14:50;28.70;54.10
48744;DHT22;34538;48.836;9.174;2022-07-17T15:17:16;28.80;55.00
48744;DHT22;34538;48.836;9.174;2022-07-17T15:19:41;29.00;54.10
48744;DHT22;34538;48.836;9.174;2022-07-17T15:22:07;29.10;53.10
48744;DHT22;34538;48.836;9.174;2022-07-17T15:24:33;29.20;53.10
48744;DHT22;34538;48.836;9.174;2022-07-17T15:26:58;29.40;53.60
48744;DHT22;34538;48.836;9.174;2022-07-17T15:29:24;29.60;53.30
48744;DHT22;34538;48.836;9.174;2022-07-17T15:31:50;29.90;52.90
48744;DHT22;34538;48.836;9.174;2022-07-17T15:34:15;30.20;53.10
48744;DHT22;34538;48.836;9.174;2022-07-17T15:36:41;30.40;55.40
48744;DHT22;34538;48.836;9.174;2022-07-17T15:39:07;30.50;52.00